Time;durP1;ratioP1;P1;durP2;ratioP2;P2;SDS_P1;SDS_P2;PMS_P1;PMS_P2;Temp;Humidity;BMP_temperature;BMP_pressure;BME280_temperature;BME280_humidity;BME280_pressure;Samples;Min_cycle;Max_cycle;Signal;HPM_P1;HPM_P2
2022/04/07 00:00:04;;;;;;;7.03;4.47;;;;;;;17.87;100.00;98993.78;5036051;28;20071;-48
2022/04/07 00:02:29;;;;;;;6.68;3.70;;;;;;;18.09;100.00;98992.47;5037311;28;20077;-49
2022/04/07 00:04:55;;;;;;;13.03;4.30;;;;;;;17.77;100.00;98988.50;5050042;28;20029;-50
2022/04/07 00:07:20;;;;;;;8.67;4.37;;;;;;;17.62;100.00;98994.88;5039625;28;20025;-48
2022/04/07 00:09:46;;;;;;;10.93;3.80;;;;;;;17.75;100.00;98988.78;5043821;28;20034;-48
2022/04/07 00:12:11;;;;;;;15.70;4.97;;;;;;;17.88;100.00;98987.28;5047076;28;20266;-49
2022/04/07 00:14:37;;;;;;;8.82;4.97;;;;;;;17.74;100.00;98997.19;5036601;28;20130;-52
2022/04/07 00:17:03;;;;;;;11.15;5.80;;;;;;;17.73;100.00;98977.47;5050014;28;20087;-51
2022/04/07 00:19:29;;;;;;;9.60;5.35;;;;;;;17.96;100.00;98976.91;5040944;28;20508;-49
2022/04/07 00:21:57;;;;;;;13.67;6.13;;;;;;;17.34;100.00;98952.22;5031343;28;20068;-48
2022/04/07 00:24:23;;;;;;;9.37;4.67;;;;;;;17.80;100.00;98952.78;5043077;28;20048;-47
2022/04/07 00:26:48;;;;;;;13.38;5.38;;;;;;;17.83;100.00;98941.38;5035954;28;20287;-46
2022/04/07 00:29:14;;;;;;;16.45;5.95;;;;;;;17.36;100.00;98922.22;5048349;28;20121;-48
2022/04/07 00:31:40;;;;;;;10.23;4.77;;;;;;;17.53;100.00;98921.75;5041995;28;20048;-48
2022/04/07 00:34:06;;;;;;;10.45;4.57;;;;;;;17.57;100.00;98927.38;5040919;28;20314;-49
2022/04/07 00:36:32;;;;;;;12.73;5.10;;;;;;;17.26;100.00;98923.13;5049254;28;20045;-47
2022/04/07 00:38:58;;;;;;;12.07;5.00;;;;;;;17.42;100.00;98944.56;5033633;28;20099;-50
2022/04/07 00:41:24;;;;;;;9.57;4.18;;;;;;;17.53;100.00;98918.25;5033221;28;20274;-47
2022/04/07 00:43:53;;;;;;;13.23;3.93;;;;;;;17.41;100.00;98903.22;5033375;28;20029;-50
2022/04/07 00:46:19;;;;;;;15.67;4.33;;;;;;;17.45;100.00;98908.88;5034302;28;20053;-47
2022/04/07 00:48:45;;;;;;;11.50;4.22;;;;;;;17.67;100.00;98899.41;5049464;28;20274;-46
2022/04/07 00:51:11;;;;;;;;;;;;;;;17.08;100.00;98907.69;5038146;28;20063;-47
2022/04/07 00:53:36;;;;;;;8.67;4.37;;;;;;;17.22;100.00;98905.88;5044550;28;19981;-49
2022/04/07 00:56:02;;;;;;;8.75;3.05;;;;;;;18.15;100.00;98907.44;5043906;28;20109;-47
2022/04/07 00:58:29;;;;;;;8.70;3.40;;;;;;;17.39;100.00;98907.34;5037581;28;20041;-50
2022/04/07 01:00:56;;;;;;;12.00;3.70;;;;;;;17.43;100.00;98908.34;5035068;28;20101;-46
2022/04/07 01:03:22;;;;;;;8.10;3.47;;;;;;;17.28;100.00;98912.84;5046472;28;20274;-50
2022/04/07 01:05:50;;;;;;;8.82;3.40;;;;;;;16.88;100.00;98909.47;5042523;28;20371;-48
2022/04/07 01:08:15;;;;;;;14.83;4.50;;;;;;;17.26;100.00;98895.31;5039357;28;20037;-49
2022/04/07 01:10:42;;;;;;;22.17;5.70;;;;;;;17.25;100.00;98905.31;5049335;28;20362;-49
2022/04/07 01:13:08;;;;;;;18.07;5.70;;;;;;;16.77;100.00;98895.25;5036127;28;20057;-48
2022/04/07 01:15:34;;;;;;;17.23;5.40;;;;;;;17.47;100.00;98887.75;5044507;28;20278;-45
2022/04/07 01:18:03;;;;;;;20.00;6.07;;;;;;;21.15;100.00;98896.94;5043361;28;20037;-47
2022/04/07 01:20:29;;;;;;;15.87;5.10;;;;;;;19.46;100.00;98872.38;5037086;28;20038;-45
2022/04/07 01:22:56;;;;;;;19.05;5.38;;;;;;;19.59;100.00;98865.34;5034609;28;20271;-46
2022/04/07 01:25:27;;;;;;;13.70;5.10;;;;;;;18.85;100.00;98866.25;5046040;28;20106;-49
2022/04/07 01:27:53;;;;;;;18.87;5.73;;;;;;;17.98;100.00;98837.59;5042698;28;20258;-47
2022/04/07 01:30:20;;;;;;;21.02;5.43;;;;;;;17.79;100.00;98870.06;5038081;28;20275;-48
2022/04/07 01:32:50;;;;;;;19.83;5.75;;;;;;;18.81;100.00;98838.16;5048818;28;20042;-52
2022/04/07 01:35:16;;;;;;;15.77;6.47;;;;;;;18.56;100.00;98842.94;5037374;28;20037;-50
2022/04/07 01:37:46;;;;;;;16.10;6.20;;;;;;;17.79;100.00;98848.44;5043628;28;20040;-46
2022/04/07 01:40:16;;;;;;;12.52;6.10;;;;;;;18.31;100.00;98826.03;5032486;28;20058;-49
2022/04/07 01:42:45;;;;;;;13.45;5.25;;;;;;;18.31;100.00;98829.53;5032735;28;20038;-49
2022/04/07 01:45:12;;;;;;;16.67;5.77;;;;;;;18.19;100.00;98812.97;5047818;28;20038;-48
2022/04/07 01:47:41;;;;;;;19.17;5.80;;;;;;;18.42;100.00;98805.81;5040150;28;20278;-49
2022/04/07 01:50:09;;;;;;;16.43;5.33;;;;;;;17.60;100.00;98795.19;5040071;28;20279;-47
2022/04/07 01:52:39;;;;;;;20.07;5.57;;;;;;;18.44;100.00;98808.22;5052994;28;20279;-46
2022/04/07 01:55:06;;;;;;;23.03;6.10;;;;;;;18.34;100.00;98799.19;5019255;28;20350;-49
2022/04/07 01:57:32;;;;;;;15.63;6.32;;;;;;;18.24;100.00;98809.38;5043651;28;20275;-45
2022/04/07 01:59:58;;;;;;;19.42;5.18;;;;;;;18.58;100.00;98786.59;5042637;28;20063;-49
2022/04/07 02:02:24;;;;;;;12.65;5.65;;;;;;;18.14;100.00;98826.59;5023529;28;20035;-48
2022/04/07 02:04:57;;;;;;;12.33;5.10;;;;;;;18.89;100.00;98805.78;5046122;28;20032;-49
2022/04/07 02:07:31;;;;;;;23.40;6.70;;;;;;;18.64;100.00;98790.81;5038062;28;20040;-51
2022/04/07 02:09:57;;;;;;;18.43;5.43;;;;;;;18.18;100.00;98774.28;5040354;28;20282;-48
2022/04/07 02:12:23;;;;;;;14.35;6.00;;;;;;;17.80;100.00;98784.34;5046060;28;20271;-47
2022/04/07 02:14:50;;;;;;;21.13;7.47;;;;;;;17.73;100.00;98758.50;5033783;28;20052;-49
2022/04/07 02:17:20;;;;;;;26.58;8.55;;;;;;;17.99;100.00;98754.56;5036687;28;20033;-52
2022/04/07 02:19:57;;;;;;;17.38;6.70;;;;;;;17.83;100.00;98751.31;5033588;28;20053;-53
2022/04/07 02:22:23;;;;;;;17.38;6.88;;;;;;;17.17;100.00;98750.09;5040051;28;20049;-51
2022/04/07 02:24:48;;;;;;;20.33;7.65;;;;;;;17.70;100.00;98766.38;5034862;28;20057;-53
2022/04/07 02:27:15;;;;;;;23.63;7.88;;;;;;;17.28;100.00;98761.56;5047148;28;20093;-48
2022/04/07 02:29:42;;;;;;;;;;;;;;;17.67;100.00;98737.25;5040448;28;20041;-50
2022/04/07 02:32:08;;;;;;;16.17;7.13;;;;;;;17.46;100.00;98732.16;5039560;28;19944;-53
2022/04/07 02:34:34;;;;;;;16.25;6.97;;;;;;;18.15;100.00;98730.81;5046891;28;20045;-49
2022/04/07 02:37:00;;;;;;;16.10;7.77;;;;;;;17.62;100.00;98709.19;5034563;28;20105;-47
2022/04/07 02:39:26;;;;;;;23.80;8.18;;;;;;;17.66;100.00;98720.25;5045280;28;20029;-47
2022/04/07 02:41:51;;;;;;;22.17;7.30;;;;;;;17.73;100.00;98709.03;5031575;28;20101;-48
2022/04/07 02:44:19;;;;;;;35.87;9.63;;;;;;;17.67;100.00;98726.44;5044183;28;20045;-52
2022/04/07 02:46:45;;;;;;;26.73;7.88;;;;;;;17.69;100.00;98705.31;5034577;28;20038;-48
2022/04/07 02:49:11;;;;;;;22.67;7.87;;;;;;;17.35;100.00;98707.19;5046242;28;20119;-47
2022/04/07 02:51:36;;;;;;;27.17;7.63;;;;;;;18.06;100.00;98693.63;5038819;28;20078;-48
2022/04/07 02:54:02;;;;;;;31.17;9.60;;;;;;;17.20;100.00;98687.41;5040172;28;20061;-48
2022/04/07 02:56:28;;;;;;;19.33;6.67;;;;;;;17.00;100.00;98676.91;5045897;28;20042;-46
2022/04/07 02:58:54;;;;;;;17.63;6.13;;;;;;;17.61;100.00;98674.34;5034591;28;20034;-47
2022/04/07 03:01:20;;;;;;;21.35;6.10;;;;;;;18.25;100.00;98686.56;5040319;28;20038;-46
2022/04/07 03:03:45;;;;;;;15.70;6.27;;;;;;;17.92;100.00;98680.03;5028512;28;20102;-51
2022/04/07 03:06:11;;;;;;;25.10;6.82;;;;;;;17.38;100.00;98667.97;5038962;28;20038;-51
2022/04/07 03:08:37;;;;;;;25.23;6.18;;;;;;;17.85;100.00;98665.31;5046786;28;20050;-49
2022/04/07 03:11:05;;;;;;;20.73;4.50;;;;;;;17.74;100.00;98646.56;5033643;28;20053;-50
2022/04/07 03:13:31;;;;;;;19.23;4.78;;;;;;;17.79;100.00;98632.19;5043876;28;20054;-50
2022/04/07 03:15:56;;;;;;;26.50;5.20;;;;;;;17.13;100.00;98646.44;5041109;28;20072;-51
2022/04/07 03:18:22;;;;;;;13.50;3.97;;;;;;;17.49;100.00;98626.19;5037353;28;20042;-47
2022/04/07 03:20:47;;;;;;;21.23;4.50;;;;;;;17.70;100.00;98639.34;5047505;28;20041;-51
2022/04/07 03:23:13;;;;;;;17.65;3.72;;;;;;;17.72;100.00;98639.84;5035420;28;20109;-48
2022/04/07 03:25:38;;;;;;;13.37;3.70;;;;;;;17.45;100.00;98638.69;5043198;28;20048;-48
2022/04/07 03:28:06;;;;;;;19.15;4.30;;;;;;;17.96;100.00;98636.19;5042050;28;20030;-47
2022/04/07 03:30:32;;;;;;;19.03;4.03;;;;;;;17.35;100.00;98615.31;5035698;28;20052;-48
2022/04/07 03:32:58;;;;;;;14.95;4.03;;;;;;;17.15;100.00;98621.88;5046698;28;20287;-52
2022/04/07 03:35:27;;;;;;;24.53;4.30;;;;;;;16.68;100.00;98610.88;5036271;28;20105;-45
2022/04/07 03:37:53;;;;;;;30.70;6.00;;;;;;;17.16;100.00;98608.06;5041107;28;20303;-49
2022/04/07 03:40:19;;;;;;;18.92;4.25;;;;;;;17.28;100.00;98599.50;5043666;28;20281;-48
2022/04/07 03:42:45;;;;;;;16.98;4.78;;;;;;;17.43;100.00;98592.25;5031712;28;20042;-48
2022/04/07 03:45:10;;;;;;;26.73;4.40;;;;;;;17.00;100.00;98579.69;5046855;28;20028;-46
2022/04/07 03:47:36;;;;;;;23.73;5.93;;;;;;;16.90;100.00;98591.41;5037842;28;20093;-51
2022/04/07 03:50:01;;;;;;;23.07;6.90;;;;;;;17.29;100.00;98565.97;5039251;28;20523;-49
2022/04/07 03:52:27;;;;;;;21.38;5.18;;;;;;;17.16;100.00;98574.84;5043885;28;20100;-50
2022/04/07 03:54:52;;;;;;;37.57;6.00;;;;;;;20.77;100.00;98562.22;5033769;28;20042;-49
2022/04/07 03:57:18;;;;;;;16.73;5.97;;;;;;;25.15;100.00;98548.25;5045579;28;20304;-51
2022/04/07 03:59:44;;;;;;;22.63;6.18;;;;;;;20.90;81.20;98537.94;5038891;28;20051;-52
2022/04/07 04:02:10;;;;;;;20.63;5.85;;;;;;;21.68;78.76;98538.91;5035300;28;20038;-54
2022/04/07 04:04:36;;;;;;;23.63;6.28;;;;;;;20.14;85.46;98539.91;5045844;28;20044;-52
2022/04/07 04:07:03;;;;;;;24.20;5.82;;;;;;;19.82;86.26;98567.06;5033839;28;20053;-52
2022/04/07 04:09:28;;;;;;;21.67;4.95;;;;;;;20.08;88.21;98506.72;5036534;28;20034;-54
2022/04/07 04:11:54;;;;;;;26.70;6.43;;;;;;;21.23;76.96;98523.03;5030113;28;20312;-53
2022/04/07 04:14:19;;;;;;;22.07;4.03;;;;;;;19.30;88.92;98521.56;5042848;28;20049;-54
2022/04/07 04:16:45;;;;;;;20.40;5.15;;;;;;;19.44;88.22;98486.22;5033607;28;20132;-51
2022/04/07 04:19:11;;;;;;;20.17;4.73;;;;;;;19.55;86.45;98446.88;5045623;28;20041;-48
2022/04/07 04:21:37;;;;;;;35.38;6.82;;;;;;;19.38;86.41;98455.75;5031837;28;20276;-48
2022/04/07 04:24:02;;;;;;;26.53;5.77;;;;;;;19.08;91.82;98479.03;5044122;28;20041;-49
2022/04/07 04:26:28;;;;;;;16.48;4.75;;;;;;;19.72;82.88;98459.72;5039377;28;20283;-48
2022/04/07 04:28:54;;;;;;;21.55;5.72;;;;;;;18.89;91.83;98455.63;5049830;28;20056;-51
2022/04/07 04:31:24;;;;;;;20.50;5.88;;;;;;;19.20;87.34;98447.53;5038362;28;20041;-54
2022/04/07 04:33:56;;;;;;;16.17;5.23;;;;;;;19.44;87.45;98384.03;5027573;28;20030;-52
2022/04/07 04:36:22;;;;;;;18.10;5.40;;;;;;;19.63;85.92;98386.50;5050611;28;20342;-49
2022/04/07 04:38:48;;;;;;;17.58;5.32;;;;;;;19.66;81.19;98376.13;5048766;28;20287;-50
2022/04/07 04:41:14;;;;;;;17.63;5.22;;;;;;;19.63;85.05;98394.63;5033512;28;20117;-47
2022/04/07 04:43:40;;;;;;;14.18;4.15;;;;;;;19.62;84.53;98374.03;5040884;28;20021;-49
2022/04/07 04:46:07;;;;;;;11.38;5.05;;;;;;;19.49;85.65;98366.84;5038603;28;20053;-47
2022/04/07 04:48:33;;;;;;;10.40;4.30;;;;;;;18.71;89.35;98387.84;5027554;28;20030;-48
2022/04/07 04:50:59;;;;;;;18.63;4.10;;;;;;;19.02;84.70;98384.38;5049327;28;20271;-52
2022/04/07 04:53:24;;;;;;;9.13;3.63;;;;;;;18.45;92.88;98391.19;5034753;28;20056;-49
2022/04/07 04:55:50;;;;;;;15.30;4.07;;;;;;;18.93;87.77;98342.91;5033775;28;20029;-50
2022/04/07 04:58:16;;;;;;;13.95;3.78;;;;;;;19.04;89.33;98355.06;5033778;28;20284;-52
2022/04/07 05:00:42;;;;;;;24.37;4.20;;;;;;;19.02;91.52;98392.50;5029741;28;20046;-49
2022/04/07 05:03:09;;;;;;;14.83;3.70;;;;;;;18.93;92.12;98332.06;5025629;28;20301;-48
2022/04/07 05:05:34;;;;;;;13.20;3.17;;;;;;;18.94;90.46;98354.50;5033312;28;20347;-47
2022/04/07 05:08:00;;;;;;;10.20;3.20;;;;;;;19.02;89.71;98334.81;5038102;28;20044;-48
2022/04/07 05:10:26;;;;;;;12.45;3.83;;;;;;;18.14;100.00;98351.34;5038073;28;20312;-46
2022/04/07 05:12:52;;;;;;;9.57;3.45;;;;;;;18.22;100.00;98349.00;5048807;28;20087;-47
2022/04/07 05:15:17;;;;;;;10.57;2.83;;;;;;;17.99;100.00;98306.50;5036176;28;20113;-48
2022/04/07 05:17:52;;;;;;;12.32;2.92;;;;;;;18.54;100.00;98310.03;5044926;28;20048;-46
2022/04/07 05:20:18;;;;;;;9.73;2.80;;;;;;;18.44;100.00;98294.09;5032565;28;20049;-47
2022/04/07 05:22:44;;;;;;;11.88;3.47;;;;;;;18.48;98.13;98289.66;5032895;28;20034;-46
2022/04/07 05:25:10;;;;;;;16.23;4.70;;;;;;;18.89;98.59;98279.63;5039851;28;20030;-47
2022/04/07 05:27:36;;;;;;;18.63;3.70;;;;;;;18.25;100.00;98280.78;5045301;28;20391;-49
2022/04/07 05:30:15;;;;;;;10.80;3.72;;;;;;;18.76;100.00;98265.09;5032418;28;20034;-50
2022/04/07 05:32:42;;;;;;;13.17;3.80;;;;;;;18.42;100.00;98296.31;5037963;28;20065;-50
2022/04/07 05:35:09;;;;;;;8.00;4.10;;;;;;;18.00;100.00;98248.63;5048220;28;20280;-51
2022/04/07 05:37:35;;;;;;;11.30;4.13;;;;;;;18.03;100.00;98279.69;5038911;28;20299;-50
2022/04/07 05:40:00;;;;;;;8.95;3.95;;;;;;;18.18;100.00;98244.13;5041526;28;20271;-51
2022/04/07 05:42:26;;;;;;;8.70;3.80;;;;;;;18.41;100.00;98241.38;5045612;28;20956;-49
2022/04/07 05:44:51;;;;;;;7.53;3.55;;;;;;;18.51;100.00;98231.41;5034907;28;20037;-49
2022/04/07 05:47:17;;;;;;;8.80;3.20;;;;;;;17.90;100.00;98236.13;5035898;28;20053;-48
2022/04/07 05:49:43;;;;;;;13.03;4.60;;;;;;;17.76;100.00;98238.09;5044443;28;20063;-50
2022/04/07 05:52:09;;;;;;;;;;;;;;;19.20;100.00;98254.41;5043399;28;20041;-53
2022/04/07 05:54:35;;;;;;;21.03;4.90;;;;;;;19.19;100.00;98231.94;5036639;28;20233;-55
2022/04/07 05:57:01;;;;;;;7.60;3.53;;;;;;;19.08;100.00;98224.41;5048223;28;20106;-54
2022/04/07 05:59:26;;;;;;;8.00;3.80;;;;;;;19.62;100.00;98235.78;5031997;28;20079;-53
2022/04/07 06:01:51;;;;;;;6.33;3.07;;;;;;;19.68;100.00;98208.50;5031876;28;20048;-54
2022/04/07 06:04:17;;;;;;;8.37;4.03;;;;;;;19.92;97.38;98216.97;5043973;28;20052;-53
2022/04/07 06:06:43;;;;;;;9.43;3.65;;;;;;;20.30;96.97;98201.06;5020367;28;20034;-51
2022/04/07 06:09:09;;;;;;;10.82;5.88;;;;;;;18.97;100.00;98208.47;5046557;28;20042;-51
2022/04/07 06:11:34;;;;;;;11.25;4.88;;;;;;;18.97;100.00;98227.41;5037995;28;20057;-53
2022/04/07 06:14:00;;;;;;;14.00;4.00;;;;;;;18.85;100.00;98192.81;5040313;28;20054;-50
2022/04/07 06:16:25;;;;;;;12.60;4.00;;;;;;;20.35;99.63;98190.81;5044924;28;20283;-51
2022/04/07 06:18:51;;;;;;;8.33;4.33;;;;;;;19.98;100.00;98182.34;5034527;28;20040;-49
2022/04/07 06:21:17;;;;;;;12.80;4.53;;;;;;;19.78;100.00;98186.47;5031766;28;20033;-52
2022/04/07 06:23:43;;;;;;;21.15;5.72;;;;;;;20.76;100.00;98179.59;5049956;28;20035;-51
2022/04/07 06:26:08;;;;;;;13.80;5.40;;;;;;;18.89;100.00;98168.59;5078466;28;20034;-46
2022/04/07 06:28:33;;;;;;;17.40;6.03;;;;;;;18.76;100.00;98171.16;5045828;28;20037;-51
2022/04/07 06:30:59;;;;;;;17.60;6.47;;;;;;;19.26;100.00;98171.03;5034442;28;20045;-51
2022/04/07 06:33:24;;;;;;;14.02;5.28;;;;;;;18.67;100.00;98166.81;5045719;28;20046;-53
2022/04/07 06:35:50;;;;;;;10.97;5.73;;;;;;;18.11;100.00;98142.94;5034204;28;20128;-50
2022/04/07 06:38:17;;;;;;;23.70;7.70;;;;;;;18.26;100.00;98166.84;5031161;28;20060;-56
2022/04/07 06:40:42;;;;;;;14.77;5.22;;;;;;;20.94;100.00;98166.72;5031432;28;20045;-55
2022/04/07 06:43:08;;;;;;;45.67;5.97;;;;;;;21.72;100.00;98188.22;5033528;28;20457;-52
2022/04/07 06:45:33;;;;;;;41.97;6.20;;;;;;;20.92;100.00;98204.28;5038590;28;20037;-53
2022/04/07 06:47:59;;;;;;;36.33;6.43;;;;;;;21.20;100.00;98210.03;5030510;28;20100;-52
2022/04/07 06:50:25;;;;;;;16.43;4.10;;;;;;;22.42;67.74;98205.69;5037827;28;20056;-52
2022/04/07 06:52:52;;;;;;;58.17;3.17;;;;;;;21.84;66.64;98237.19;5047531;28;20037;-55
2022/04/07 06:55:18;;;;;;;10.65;0.57;;;;;;;21.48;91.44;98249.47;5030471;28;20038;-52
2022/04/07 06:57:47;;;;;;;5.55;1.30;;;;;;;20.72;76.28;98222.91;5038177;28;20045;-53
2022/04/07 07:00:13;;;;;;;18.50;1.75;;;;;;;21.63;62.55;98221.66;5028349;28;20057;-53
2022/04/07 07:02:38;;;;;;;12.35;1.55;;;;;;;21.37;61.56;98218.38;5026025;28;20110;-53
2022/04/07 07:05:04;;;;;;;7.17;1.80;;;;;;;21.45;59.78;98217.50;5044822;28;20034;-55
2022/04/07 07:07:29;;;;;;;14.55;2.35;;;;;;;20.58;63.00;98222.34;5022127;28;20049;-49
2022/04/07 07:09:55;;;;;;;18.90;2.70;;;;;;;20.51;64.82;98220.13;5041764;28;20097;-52
2022/04/07 07:12:21;;;;;;;8.20;2.37;;;;;;;19.85;67.68;98211.22;5043201;28;20037;-51
2022/04/07 07:14:47;;;;;;;22.95;2.75;;;;;;;18.68;80.80;98217.13;5034987;28;20169;-51
2022/04/07 07:17:13;;;;;;;;;;;;;;;19.86;73.50;98207.38;5047316;28;20032;-50
2022/04/07 07:19:38;;;;;;;14.13;2.20;;;;;;;19.77;73.11;98212.00;5051238;28;19915;-53
2022/04/07 07:22:04;;;;;;;12.65;2.60;;;;;;;19.86;76.33;98191.09;5081096;28;20030;-52
2022/04/07 07:24:29;;;;;;;16.17;2.67;;;;;;;19.63;73.07;98194.00;5043912;28;20053;-49
2022/04/07 07:26:55;;;;;;;19.30;2.83;;;;;;;19.67;75.05;98180.59;5017062;28;20066;-50
2022/04/07 07:29:20;;;;;;;15.30;3.05;;;;;;;19.26;75.06;98171.03;5034597;28;20044;-48
2022/04/07 07:31:46;;;;;;;11.90;2.47;;;;;;;19.77;69.52;98145.03;5042641;28;20109;-49
2022/04/07 07:34:11;;;;;;;20.20;4.20;;;;;;;20.03;70.39;98119.75;5041374;28;20032;-53
2022/04/07 07:36:36;;;;;;;46.50;5.17;;;;;;;20.31;68.71;98124.75;5035828;28;20060;-50
2022/04/07 07:39:02;;;;;;;43.53;4.80;;;;;;;20.94;60.39;98125.19;5046050;28;20037;-47
2022/04/07 07:41:27;;;;;;;21.02;2.95;;;;;;;20.75;61.93;98129.91;5035491;28;20085;-53
2022/04/07 07:43:53;;;;;;;30.57;4.57;;;;;;;22.15;57.47;98137.16;5041655;28;20101;-48
2022/04/07 07:46:18;;;;;;;49.73;4.50;;;;;;;20.17;68.36;98149.38;5030253;28;20029;-51
2022/04/07 07:48:44;;;;;;;17.43;3.60;;;;;;;18.83;73.81;98184.22;5045950;28;20278;-48
2022/04/07 07:51:09;;;;;;;17.27;3.10;;;;;;;19.75;81.65;98192.53;5033538;28;20034;-51
2022/04/07 07:53:35;;;;;;;14.57;3.30;;;;;;;19.38;73.04;98192.91;5043632;28;20112;-50
2022/04/07 07:56:00;;;;;;;28.57;3.80;;;;;;;20.86;73.16;98181.94;5040427;28;20052;-50
2022/04/07 07:58:26;;;;;;;52.47;6.03;;;;;;;20.48;71.82;98161.84;5040461;28;20068;-51
2022/04/07 08:00:51;;;;;;;22.23;3.47;;;;;;;18.80;83.28;98159.69;5033489;28;20034;-51
2022/04/07 08:03:17;;;;;;;64.93;6.22;;;;;;;19.81;75.44;98150.56;5049907;28;20377;-53
2022/04/07 08:05:43;;;;;;;66.13;11.27;;;;;;;19.05;76.44;98139.19;5040823;28;20026;-49
2022/04/07 08:08:11;;;;;;;38.33;7.32;;;;;;;20.29;69.57;98101.75;5042882;28;20109;-51
2022/04/07 08:10:36;;;;;;;18.50;4.70;;;;;;;19.50;70.01;98094.69;5048066;28;20090;-48
2022/04/07 08:13:02;;;;;;;16.83;4.00;;;;;;;20.49;62.18;98103.72;5038476;28;20054;-49
2022/04/07 08:15:27;;;;;;;8.95;2.90;;;;;;;19.42;75.63;98115.25;5047977;28;20060;-54
2022/04/07 08:17:53;;;;;;;11.77;2.73;;;;;;;18.98;79.90;98095.50;5041744;28;20057;-53
2022/04/07 08:20:19;;;;;;;13.30;2.43;;;;;;;19.23;79.97;98107.47;5041420;28;20049;-52
2022/04/07 08:22:44;;;;;;;15.05;2.17;;;;;;;19.56;76.65;98111.59;5033553;28;20280;-52
2022/04/07 08:25:09;;;;;;;11.50;3.20;;;;;;;17.79;89.86;98102.34;5049582;28;20039;-50
2022/04/07 08:27:35;;;;;;;7.37;2.07;;;;;;;19.04;87.85;98083.44;5039395;28;20037;-50
2022/04/07 08:30:01;;;;;;;9.37;2.50;;;;;;;19.36;82.71;98084.03;5043869;28;20037;-49
2022/04/07 08:32:26;;;;;;;7.22;2.13;;;;;;;20.25;73.83;98092.69;5046412;28;20033;-47
2022/04/07 08:34:52;;;;;;;10.25;2.78;;;;;;;18.59;84.83;98089.91;5036757;28;20029;-50
2022/04/07 08:37:17;;;;;;;10.97;2.13;;;;;;;18.76;85.21;98081.81;5049839;28;20159;-53
2022/04/07 08:39:43;;;;;;;10.05;2.65;;;;;;;18.32;91.44;98072.81;5040409;28;20025;-50
2022/04/07 08:42:09;;;;;;;16.13;3.17;;;;;;;19.38;89.88;98083.72;5032527;28;20039;-51
2022/04/07 08:44:34;;;;;;;11.80;2.40;;;;;;;19.44;81.78;98068.88;5041075;28;20290;-48
2022/04/07 08:47:00;;;;;;;9.80;1.70;;;;;;;19.35;82.81;98083.22;5036373;28;20073;-50
2022/04/07 08:49:31;;;;;;;7.88;1.85;;;;;;;20.32;79.45;98090.28;5048534;28;20042;-50
2022/04/07 08:51:57;;;;;;;12.77;1.80;;;;;;;19.04;84.40;98095.06;5041468;28;20044;-52
2022/04/07 08:54:23;;;;;;;7.22;2.30;;;;;;;18.98;90.81;98101.75;5040350;28;20291;-47
2022/04/07 08:56:49;;;;;;;10.10;2.00;;;;;;;19.24;85.66;98108.25;5048730;28;20061;-50
2022/04/07 08:59:15;;;;;;;8.48;1.98;;;;;;;19.68;91.63;98094.66;5035646;28;20042;-47
2022/04/07 09:01:41;;;;;;;11.40;2.13;;;;;;;19.18;89.70;98110.34;5046156;28;20048;-47
2022/04/07 09:04:07;;;;;;;9.75;2.10;;;;;;;18.95;97.84;98107.78;5042506;28;20057;-48
2022/04/07 09:06:38;;;;;;;11.70;2.30;;;;;;;20.19;88.17;98108.38;5038426;28;20038;-51
2022/04/07 09:09:16;;;;;;;16.73;2.90;;;;;;;20.49;78.66;98100.22;5048706;28;20063;-49
2022/04/07 09:11:42;;;;;;;10.20;2.53;;;;;;;19.28;86.14;98107.31;5039588;28;20275;-48
2022/04/07 09:14:10;;;;;;;13.00;2.27;;;;;;;19.89;81.15;98109.09;5041905;28;20298;-47
2022/04/07 09:16:38;;;;;;;8.53;1.73;;;;;;;20.03;79.55;98113.53;5027230;28;20291;-52
2022/04/07 09:19:04;;;;;;;11.73;2.33;;;;;;;20.75;79.59;98123.69;5032486;28;20298;-53
2022/04/07 09:21:31;;;;;;;14.43;2.28;;;;;;;21.17;75.43;98112.88;5037441;28;20288;-50
2022/04/07 09:23:58;;;;;;;5.97;2.23;;;;;;;22.01;67.54;98121.16;5043668;28;20042;-51
2022/04/07 09:26:24;;;;;;;22.47;4.87;;;;;;;21.67;64.07;98107.63;5044991;28;20271;-52
2022/04/07 09:28:55;;;;;;;24.93;5.47;;;;;;;23.26;57.71;98125.34;5036664;28;20316;-50
2022/04/07 09:31:22;;;;;;;25.73;5.47;;;;;;;21.55;64.79;98121.94;5019919;28;20266;-50
2022/04/07 09:33:56;;;;;;;16.03;5.03;;;;;;;23.43;60.30;98124.28;5044952;28;20287;-50
2022/04/07 09:36:23;;;;;;;8.43;2.00;;;;;;;22.75;57.37;98125.81;5044287;28;20298;-49
2022/04/07 09:38:52;;;;;;;13.65;3.88;;;;;;;22.80;53.42;98117.41;5036850;28;20290;-51
2022/04/07 09:41:19;;;;;;;22.20;4.13;;;;;;;23.72;51.39;98110.56;5035242;28;20037;-48
2022/04/07 09:43:49;;;;;;;16.85;5.15;;;;;;;23.59;49.67;98126.22;5044414;28;20271;-52
2022/04/07 09:46:20;;;;;;;21.03;5.80;;;;;;;22.66;53.51;98117.78;5043102;28;20055;-50
2022/04/07 09:49:06;;;;;;;15.97;3.03;;;;;;;20.92;51.51;98126.31;5036889;28;20283;-50
2022/04/07 09:51:46;;;;;;;11.90;3.00;;;;;;;21.26;54.09;98139.97;5021774;28;20266;-49
2022/04/07 09:54:16;;;;;;;9.97;3.10;;;;;;;23.72;50.49;98130.47;5041671;28;20332;-50
2022/04/07 09:56:52;;;;;;;24.63;6.60;;;;;;;21.99;47.69;98162.31;5046856;28;20281;-51
2022/04/07 09:59:19;;;;;;;13.88;4.63;;;;;;;23.55;46.85;98147.97;5032152;28;20277;-51
2022/04/07 10:01:48;;;;;;;13.57;3.53;;;;;;;24.09;45.42;98140.38;5038620;28;20036;-53
2022/04/07 10:04:14;;;;;;;10.40;3.07;;;;;;;24.86;44.15;98129.28;5040921;28;20038;-52
2022/04/07 10:06:41;;;;;;;13.30;3.03;;;;;;;24.92;41.58;98130.59;5046326;28;20037;-52
2022/04/07 10:09:09;;;;;;;15.95;5.10;;;;;;;25.15;40.52;98143.56;5035072;28;20048;-52
2022/04/07 10:11:35;;;;;;;13.20;3.57;;;;;;;24.91;41.99;98143.47;5046496;28;20061;-48
2022/04/07 10:14:01;;;;;;;17.33;5.37;;;;;;;24.38;42.28;98146.53;5040633;28;20053;-49
2022/04/07 10:16:27;;;;;;;10.73;3.47;;;;;;;23.17;41.64;98143.75;5038877;28;20030;-53
2022/04/07 10:19:00;;;;;;;13.57;3.42;;;;;;;23.78;43.28;98163.75;5030963;28;20132;-50
2022/04/07 10:21:38;;;;;;;12.37;2.73;;;;;;;21.84;42.89;98149.38;5031691;28;20090;-48
2022/04/07 10:24:29;;;;;;;11.37;2.00;;;;;;;22.70;41.65;98151.34;5040768;28;20290;-49
2022/04/07 10:26:57;;;;;;;11.40;3.40;;;;;;;25.26;37.87;98144.56;5035297;28;20283;-48
2022/04/07 10:29:24;;;;;;;15.67;3.73;;;;;;;21.90;40.66;98165.13;5019163;28;20295;-48
2022/04/07 10:32:09;;;;;;;15.53;4.10;;;;;;;22.19;40.91;98179.69;5043895;28;20310;-51
2022/04/07 10:34:35;;;;;;;13.40;3.57;;;;;;;22.47;41.56;98195.41;5044793;28;20326;-50
2022/04/07 10:37:07;;;;;;;12.38;3.10;;;;;;;21.84;41.42;98182.00;5034247;28;20275;-51
2022/04/07 10:39:33;;;;;;;12.80;3.13;;;;;;;22.38;39.55;98178.34;5031329;28;20034;-51
2022/04/07 10:41:59;;;;;;;19.92;3.95;;;;;;;22.11;39.64;98182.50;5039602;28;20274;-49
2022/04/07 10:44:26;;;;;;;17.05;4.18;;;;;;;22.01;40.44;98200.06;5038109;28;20025;-50
2022/04/07 10:47:05;;;;;;;14.40;4.20;;;;;;;20.52;42.88;98196.47;5047184;28;20041;-47
2022/04/07 10:49:32;;;;;;;17.13;4.27;;;;;;;20.56;41.73;98195.50;5020907;28;20281;-49
2022/04/07 10:51:59;;;;;;;14.33;3.43;;;;;;;21.26;41.71;98209.81;5042494;28;20267;-49
2022/04/07 10:54:29;;;;;;;17.47;3.90;;;;;;;22.69;40.32;98193.34;5043056;28;20287;-50
2022/04/07 10:57:07;;;;;;;23.20;4.80;;;;;;;20.69;40.92;98201.06;5034859;28;20279;-49
2022/04/07 10:59:34;;;;;;;10.47;2.03;;;;;;;20.94;40.57;98204.75;5016131;28;20279;-50
2022/04/07 11:02:11;;;;;;;21.10;5.33;;;;;;;21.13;40.96;98247.00;5039469;28;20310;-50
2022/04/07 11:04:41;;;;;;;;;;;;;;;21.19;40.80;98235.59;5037477;28;20267;-49
2022/04/07 11:07:07;;;;;;;15.33;3.43;;;;;;;20.57;41.28;98226.19;5047141;28;19920;-47
2022/04/07 11:09:52;;;;;;;19.23;5.43;;;;;;;21.59;41.03;98225.41;5035739;28;20275;-51
2022/04/07 11:12:25;;;;;;;14.20;3.87;;;;;;;21.17;40.07;98229.72;5039839;28;20056;-49
2022/04/07 11:15:12;;;;;;;20.37;4.13;;;;;;;20.91;39.50;98225.25;5046008;28;20278;-50
2022/04/07 11:17:46;;;;;;;15.70;4.57;;;;;;;20.33;40.67;98228.34;5022011;28;20280;-48
2022/04/07 11:20:23;;;;;;;17.40;4.77;;;;;;;21.68;39.23;98233.50;5039479;28;20069;-54
2022/04/07 11:23:14;;;;;;;17.93;4.13;;;;;;;21.59;38.91;98222.69;5046000;28;20721;-52